sensor_id;sensor_type;location;lat;lon;timestamp;P1;durP1;ratioP1;P2;durP2;ratioP2
58926;SDS011;44712;52.530;9.760;2022-08-19T00:01:53;11.90;;;7.55;;
58926;SDS011;44712;52.530;9.760;2022-08-19T00:04:22;9.65;;;7.13;;
58926;SDS011;44712;52.530;9.760;2022-08-19T00:06:52;10.00;;;7.30;;
58926;SDS011;44712;52.530;9.760;2022-08-19T00:09:20;10.90;;;7.35;;
58926;SDS011;44712;52.530;9.760;2022-08-19T00:11:48;12.38;;;7.75;;
58926;SDS011;44712;52.530;9.760;2022-08-19T00:14:16;11.48;;;7.78;;
58926;SDS011;44712;52.530;9.760;2022-08-19T00:16:44;10.25;;;7.25;;
58926;SDS011;44712;52.530;9.760;2022-08-19T00:19:13;10.90;;;7.43;;
58926;SDS011;44712;52.530;9.760;2022-08-19T00:21:41;12.35;;;7.57;;
58926;SDS011;44712;52.530;9.760;2022-08-19T00:24:09;11.40;;;8.20;;
58926;SDS011;44712;52.530;9.760;2022-08-19T00:26:38;11.77;;;7.88;;
58926;SDS011;44712;52.530;9.760;2022-08-19T00:29:07;11.38;;;7.20;;
58926;SDS011;44712;52.530;9.760;2022-08-19T00:31:35;10.27;;;7.40;;
58926;SDS011;44712;52.530;9.760;2022-08-19T00:34:02;10.40;;;7.93;;
58926;SDS011;44712;52.530;9.760;2022-08-19T00:36:29;13.70;;;8.23;;
58926;SDS011;44712;52.530;9.760;2022-08-19T00:38:56;9.15;;;7.60;;
58926;SDS011;44712;52.530;9.760;2022-08-19T00:41:23;11.30;;;7.72;;
58926;SDS011;44712;52.530;9.760;2022-08-19T00:44:25;13.10;;;7.35;;
58926;SDS011;44712;52.530;9.760;2022-08-19T00:46:53;11.60;;;8.63;;
58926;SDS011;44712;52.530;9.760;2022-08-19T00:52:14;9.85;;;7.65;;
58926;SDS011;44712;52.530;9.760;2022-08-19T00:54:43;10.70;;;7.53;;
58926;SDS011;44712;52.530;9.760;2022-08-19T00:57:18;12.10;;;7.18;;
58926;SDS011;44712;52.530;9.760;2022-08-19T00:59:51;11.20;;;7.57;;
58926;SDS011;44712;52.530;9.760;2022-08-19T01:02:29;9.00;;;6.97;;
58926;SDS011;44712;52.530;9.760;2022-08-19T01:04:56;10.63;;;7.38;;
58926;SDS011;44712;52.530;9.760;2022-08-19T01:07:23;9.90;;;7.82;;
58926;SDS011;44712;52.530;9.760;2022-08-19T01:09:51;10.65;;;7.50;;
58926;SDS011;44712;52.530;9.760;2022-08-19T01:12:18;11.73;;;7.00;;
58926;SDS011;44712;52.530;9.760;2022-08-19T01:14:45;9.90;;;7.28;;
58926;SDS011;44712;52.530;9.760;2022-08-19T01:17:16;11.00;;;8.35;;
58926;SDS011;44712;52.530;9.760;2022-08-19T01:19:46;10.90;;;7.35;;
58926;SDS011;44712;52.530;9.760;2022-08-19T01:22:16;8.20;;;6.78;;
58926;SDS011;44712;52.530;9.760;2022-08-19T01:27:26;10.18;;;7.85;;
58926;SDS011;44712;52.530;9.760;2022-08-19T01:30:00;11.30;;;8.02;;
58926;SDS011;44712;52.530;9.760;2022-08-19T01:32:27;14.55;;;8.88;;
58926;SDS011;44712;52.530;9.760;2022-08-19T01:35:02;16.17;;;8.68;;
58926;SDS011;44712;52.530;9.760;2022-08-19T01:37:40;15.93;;;8.65;;
58926;SDS011;44712;52.530;9.760;2022-08-19T01:40:08;10.63;;;8.15;;
58926;SDS011;44712;52.530;9.760;2022-08-19T01:42:36;13.20;;;9.15;;
58926;SDS011;44712;52.530;9.760;2022-08-19T01:45:04;12.75;;;8.63;;
58926;SDS011;44712;52.530;9.760;2022-08-19T01:47:32;10.68;;;8.35;;
58926;SDS011;44712;52.530;9.760;2022-08-19T01:50:01;12.40;;;8.38;;
58926;SDS011;44712;52.530;9.760;2022-08-19T01:52:30;14.40;;;9.02;;
58926;SDS011;44712;52.530;9.760;2022-08-19T01:54:56;11.38;;;8.57;;
58926;SDS011;44712;52.530;9.760;2022-08-19T01:57:25;11.50;;;8.30;;
58926;SDS011;44712;52.530;9.760;2022-08-19T01:59:52;14.23;;;8.60;;
58926;SDS011;44712;52.530;9.760;2022-08-19T02:02:21;11.10;;;7.82;;
58926;SDS011;44712;52.530;9.760;2022-08-19T02:04:47;12.45;;;8.98;;
58926;SDS011;44712;52.530;9.760;2022-08-19T02:07:14;12.88;;;9.02;;
58926;SDS011;44712;52.530;9.760;2022-08-19T02:09:41;12.15;;;7.88;;
58926;SDS011;44712;52.530;9.760;2022-08-19T02:12:08;13.88;;;9.05;;
58926;SDS011;44712;52.530;9.760;2022-08-19T02:14:36;15.75;;;9.75;;
58926;SDS011;44712;52.530;9.760;2022-08-19T02:17:03;12.95;;;8.93;;
58926;SDS011;44712;52.530;9.760;2022-08-19T02:19:30;15.00;;;8.50;;
58926;SDS011;44712;52.530;9.760;2022-08-19T02:21:59;15.10;;;10.00;;
58926;SDS011;44712;52.530;9.760;2022-08-19T02:24:26;14.35;;;9.43;;
58926;SDS011;44712;52.530;9.760;2022-08-19T02:26:53;14.85;;;9.02;;
58926;SDS011;44712;52.530;9.760;2022-08-19T02:29:21;13.88;;;8.45;;
58926;SDS011;44712;52.530;9.760;2022-08-19T02:31:48;11.55;;;8.63;;
58926;SDS011;44712;52.530;9.760;2022-08-19T02:34:14;13.48;;;7.97;;
58926;SDS011;44712;52.530;9.760;2022-08-19T02:36:42;12.93;;;8.98;;
58926;SDS011;44712;52.530;9.760;2022-08-19T02:39:09;10.77;;;8.63;;
58926;SDS011;44712;52.530;9.760;2022-08-19T02:41:36;16.08;;;9.38;;
58926;SDS011;44712;52.530;9.760;2022-08-19T02:44:03;13.50;;;8.73;;
58926;SDS011;44712;52.530;9.760;2022-08-19T02:46:50;17.80;;;9.20;;
58926;SDS011;44712;52.530;9.760;2022-08-19T02:49:18;12.20;;;9.18;;
58926;SDS011;44712;52.530;9.760;2022-08-19T02:51:46;14.00;;;8.48;;
58926;SDS011;44712;52.530;9.760;2022-08-19T02:54:13;12.82;;;8.52;;
58926;SDS011;44712;52.530;9.760;2022-08-19T02:56:41;15.10;;;9.10;;
58926;SDS011;44712;52.530;9.760;2022-08-19T02:59:10;13.38;;;8.30;;
58926;SDS011;44712;52.530;9.760;2022-08-19T03:01:38;13.55;;;8.98;;
58926;SDS011;44712;52.530;9.760;2022-08-19T03:04:08;13.65;;;8.82;;
58926;SDS011;44712;52.530;9.760;2022-08-19T03:06:38;15.05;;;8.95;;
58926;SDS011;44712;52.530;9.760;2022-08-19T03:09:06;13.90;;;8.45;;
58926;SDS011;44712;52.530;9.760;2022-08-19T03:11:34;13.50;;;9.43;;
58926;SDS011;44712;52.530;9.760;2022-08-19T03:14:02;11.15;;;8.27;;
58926;SDS011;44712;52.530;9.760;2022-08-19T03:16:31;11.45;;;8.32;;
58926;SDS011;44712;52.530;9.760;2022-08-19T03:19:02;11.90;;;7.88;;
58926;SDS011;44712;52.530;9.760;2022-08-19T03:21:30;12.88;;;8.55;;
58926;SDS011;44712;52.530;9.760;2022-08-19T03:23:59;12.57;;;8.57;;
58926;SDS011;44712;52.530;9.760;2022-08-19T03:26:29;16.73;;;9.35;;
58926;SDS011;44712;52.530;9.760;2022-08-19T03:28:56;13.95;;;9.05;;
58926;SDS011;44712;52.530;9.760;2022-08-19T03:31:24;10.50;;;7.65;;
58926;SDS011;44712;52.530;9.760;2022-08-19T03:34:16;12.75;;;8.50;;
58926;SDS011;44712;52.530;9.760;2022-08-19T03:36:46;11.48;;;7.45;;
58926;SDS011;44712;52.530;9.760;2022-08-19T03:39:14;14.32;;;8.43;;
58926;SDS011;44712;52.530;9.760;2022-08-19T03:41:42;10.18;;;7.50;;
58926;SDS011;44712;52.530;9.760;2022-08-19T03:44:14;12.65;;;8.20;;
58926;SDS011;44712;52.530;9.760;2022-08-19T03:46:53;13.02;;;8.35;;
58926;SDS011;44712;52.530;9.760;2022-08-19T03:49:22;12.88;;;7.80;;
58926;SDS011;44712;52.530;9.760;2022-08-19T03:51:55;15.88;;;8.40;;
58926;SDS011;44712;52.530;9.760;2022-08-19T03:54:24;15.75;;;7.97;;
58926;SDS011;44712;52.530;9.760;2022-08-19T03:56:54;12.27;;;8.00;;
58926;SDS011;44712;52.530;9.760;2022-08-19T03:59:26;13.13;;;8.88;;
58926;SDS011;44712;52.530;9.760;2022-08-19T04:01:57;10.80;;;7.53;;
58926;SDS011;44712;52.530;9.760;2022-08-19T04:04:26;17.75;;;9.30;;
58926;SDS011;44712;52.530;9.760;2022-08-19T04:06:55;13.77;;;8.57;;
58926;SDS011;44712;52.530;9.760;2022-08-19T04:09:22;11.70;;;8.38;;
58926;SDS011;44712;52.530;9.760;2022-08-19T04:11:50;15.32;;;8.40;;
58926;SDS011;44712;52.530;9.760;2022-08-19T04:14:26;15.77;;;7.90;;
58926;SDS011;44712;52.530;9.760;2022-08-19T04:16:56;13.95;;;8.18;;
58926;SDS011;44712;52.530;9.760;2022-08-19T04:19:23;14.15;;;8.15;;
58926;SDS011;44712;52.530;9.760;2022-08-19T04:21:50;12.48;;;7.75;;
58926;SDS011;44712;52.530;9.760;2022-08-19T04:24:21;13.38;;;7.95;;
58926;SDS011;44712;52.530;9.760;2022-08-19T04:26:48;12.15;;;8.00;;
58926;SDS011;44712;52.530;9.760;2022-08-19T04:29:17;15.70;;;8.68;;
58926;SDS011;44712;52.530;9.760;2022-08-19T04:31:48;13.45;;;8.70;;
58926;SDS011;44712;52.530;9.760;2022-08-19T04:34:16;12.15;;;7.95;;
58926;SDS011;44712;52.530;9.760;2022-08-19T04:36:48;16.75;;;7.82;;
58926;SDS011;44712;52.530;9.760;2022-08-19T04:39:21;14.32;;;8.15;;
58926;SDS011;44712;52.530;9.760;2022-08-19T04:42:11;10.95;;;7.80;;
58926;SDS011;44712;52.530;9.760;2022-08-19T04:44:57;12.88;;;9.23;;
58926;SDS011;44712;52.530;9.760;2022-08-19T04:47:25;12.93;;;7.72;;
58926;SDS011;44712;52.530;9.760;2022-08-19T04:50:12;14.93;;;8.18;;
58926;SDS011;44712;52.530;9.760;2022-08-19T04:52:38;17.27;;;8.60;;
58926;SDS011;44712;52.530;9.760;2022-08-19T04:55:09;12.70;;;8.30;;
58926;SDS011;44712;52.530;9.760;2022-08-19T04:57:38;13.40;;;8.90;;
58926;SDS011;44712;52.530;9.760;2022-08-19T05:00:09;15.10;;;8.68;;
58926;SDS011;44712;52.530;9.760;2022-08-19T05:02:37;15.10;;;8.73;;
58926;SDS011;44712;52.530;9.760;2022-08-19T05:05:04;14.10;;;7.85;;
58926;SDS011;44712;52.530;9.760;2022-08-19T05:07:32;13.32;;;8.48;;
58926;SDS011;44712;52.530;9.760;2022-08-19T05:09:59;13.52;;;8.82;;
58926;SDS011;44712;52.530;9.760;2022-08-19T05:12:26;13.43;;;8.68;;
58926;SDS011;44712;52.530;9.760;2022-08-19T05:14:55;14.68;;;8.27;;
58926;SDS011;44712;52.530;9.760;2022-08-19T05:17:24;13.88;;;9.55;;
58926;SDS011;44712;52.530;9.760;2022-08-19T05:19:55;15.48;;;8.40;;
58926;SDS011;44712;52.530;9.760;2022-08-19T05:22:42;12.18;;;8.45;;
58926;SDS011;44712;52.530;9.760;2022-08-19T05:25:12;12.55;;;8.68;;
58926;SDS011;44712;52.530;9.760;2022-08-19T05:27:44;15.15;;;8.70;;
58926;SDS011;44712;52.530;9.760;2022-08-19T05:30:11;14.05;;;8.73;;
58926;SDS011;44712;52.530;9.760;2022-08-19T05:32:39;12.20;;;7.80;;
58926;SDS011;44712;52.530;9.760;2022-08-19T05:35:07;15.60;;;9.45;;
58926;SDS011;44712;52.530;9.760;2022-08-19T05:37:34;15.15;;;8.40;;
58926;SDS011;44712;52.530;9.760;2022-08-19T05:40:02;12.23;;;8.48;;
58926;SDS011;44712;52.530;9.760;2022-08-19T05:42:29;16.20;;;8.82;;
58926;SDS011;44712;52.530;9.760;2022-08-19T05:44:56;12.27;;;8.50;;
58926;SDS011;44712;52.530;9.760;2022-08-19T05:47:23;13.13;;;8.45;;
58926;SDS011;44712;52.530;9.760;2022-08-19T05:49:50;14.13;;;8.23;;
58926;SDS011;44712;52.530;9.760;2022-08-19T05:52:18;13.77;;;8.00;;
58926;SDS011;44712;52.530;9.760;2022-08-19T05:54:52;12.93;;;8.40;;
58926;SDS011;44712;52.530;9.760;2022-08-19T05:57:21;13.75;;;9.10;;
58926;SDS011;44712;52.530;9.760;2022-08-19T05:59:49;12.23;;;7.97;;
58926;SDS011;44712;52.530;9.760;2022-08-19T06:02:23;17.27;;;8.80;;
58926;SDS011;44712;52.530;9.760;2022-08-19T06:04:51;15.23;;;7.78;;
58926;SDS011;44712;52.530;9.760;2022-08-19T06:07:17;14.02;;;8.93;;
58926;SDS011;44712;52.530;9.760;2022-08-19T06:09:45;13.27;;;9.20;;
58926;SDS011;44712;52.530;9.760;2022-08-19T06:12:26;13.30;;;8.75;;
58926;SDS011;44712;52.530;9.760;2022-08-19T06:15:02;14.68;;;8.77;;
58926;SDS011;44712;52.530;9.760;2022-08-19T06:17:32;17.17;;;10.13;;
58926;SDS011;44712;52.530;9.760;2022-08-19T06:20:02;17.13;;;9.23;;
58926;SDS011;44712;52.530;9.760;2022-08-19T06:22:30;21.13;;;9.60;;
58926;SDS011;44712;52.530;9.760;2022-08-19T06:24:57;18.08;;;9.40;;
58926;SDS011;44712;52.530;9.760;2022-08-19T06:27:24;16.58;;;9.52;;
58926;SDS011;44712;52.530;9.760;2022-08-19T06:29:51;15.43;;;8.70;;
58926;SDS011;44712;52.530;9.760;2022-08-19T06:32:18;13.55;;;9.23;;
58926;SDS011;44712;52.530;9.760;2022-08-19T06:34:45;15.05;;;8.68;;
58926;SDS011;44712;52.530;9.760;2022-08-19T06:37:14;16.98;;;9.80;;
58926;SDS011;44712;52.530;9.760;2022-08-19T06:39:43;15.77;;;9.45;;
58926;SDS011;44712;52.530;9.760;2022-08-19T06:42:11;14.65;;;8.75;;
58926;SDS011;44712;52.530;9.760;2022-08-19T06:44:46;15.02;;;9.18;;
58926;SDS011;44712;52.530;9.760;2022-08-19T06:47:19;14.85;;;9.68;;
58926;SDS011;44712;52.530;9.760;2022-08-19T06:49:52;16.13;;;10.40;;
58926;SDS011;44712;52.530;9.760;2022-08-19T06:52:27;31.50;;;13.98;;
58926;SDS011;44712;52.530;9.760;2022-08-19T06:54:53;15.25;;;9.60;;
58926;SDS011;44712;52.530;9.760;2022-08-19T06:57:25;15.80;;;9.48;;
58926;SDS011;44712;52.530;9.760;2022-08-19T06:59:53;17.55;;;9.07;;
58926;SDS011;44712;52.530;9.760;2022-08-19T07:02:22;14.10;;;8.50;;
58926;SDS011;44712;52.530;9.760;2022-08-19T07:04:52;15.38;;;10.02;;
58926;SDS011;44712;52.530;9.760;2022-08-19T07:07:20;18.42;;;9.85;;
58926;SDS011;44712;52.530;9.760;2022-08-19T07:09:50;16.23;;;10.18;;
58926;SDS011;44712;52.530;9.760;2022-08-19T07:12:30;14.32;;;9.32;;
58926;SDS011;44712;52.530;9.760;2022-08-19T07:15:02;21.67;;;9.75;;
58926;SDS011;44712;52.530;9.760;2022-08-19T07:17:30;18.95;;;9.88;;
58926;SDS011;44712;52.530;9.760;2022-08-19T07:20:00;15.20;;;10.48;;
58926;SDS011;44712;52.530;9.760;2022-08-19T07:22:32;20.08;;;10.93;;
58926;SDS011;44712;52.530;9.760;2022-08-19T07:25:00;13.70;;;9.45;;
58926;SDS011;44712;52.530;9.760;2022-08-19T07:27:29;15.73;;;10.45;;
58926;SDS011;44712;52.530;9.760;2022-08-19T07:29:59;17.73;;;10.85;;
58926;SDS011;44712;52.530;9.760;2022-08-19T07:32:26;19.77;;;11.20;;
58926;SDS011;44712;52.530;9.760;2022-08-19T07:34:53;17.10;;;10.68;;
58926;SDS011;44712;52.530;9.760;2022-08-19T07:37:23;17.27;;;10.27;;
58926;SDS011;44712;52.530;9.760;2022-08-19T07:39:58;19.95;;;11.50;;
58926;SDS011;44712;52.530;9.760;2022-08-19T07:42:26;16.98;;;10.55;;
58926;SDS011;44712;52.530;9.760;2022-08-19T07:44:56;18.70;;;10.48;;
58926;SDS011;44712;52.530;9.760;2022-08-19T07:47:24;19.13;;;10.57;;
58926;SDS011;44712;52.530;9.760;2022-08-19T07:50:12;19.38;;;10.98;;
58926;SDS011;44712;52.530;9.760;2022-08-19T07:52:38;15.45;;;10.10;;
58926;SDS011;44712;52.530;9.760;2022-08-19T07:55:07;14.90;;;10.10;;
58926;SDS011;44712;52.530;9.760;2022-08-19T07:57:56;15.68;;;10.48;;
58926;SDS011;44712;52.530;9.760;2022-08-19T08:00:23;15.80;;;10.30;;
58926;SDS011;44712;52.530;9.760;2022-08-19T08:02:51;15.27;;;9.00;;
58926;SDS011;44712;52.530;9.760;2022-08-19T08:05:23;14.18;;;9.48;;
58926;SDS011;44712;52.530;9.760;2022-08-19T08:08:10;10.88;;;8.60;;
58926;SDS011;44712;52.530;9.760;2022-08-19T08:10:58;15.40;;;10.32;;
58926;SDS011;44712;52.530;9.760;2022-08-19T08:13:26;13.05;;;9.05;;
58926;SDS011;44712;52.530;9.760;2022-08-19T08:15:54;14.15;;;10.27;;
58926;SDS011;44712;52.530;9.760;2022-08-19T08:18:23;15.18;;;10.52;;
58926;SDS011;44712;52.530;9.760;2022-08-19T08:20:54;13.32;;;9.13;;
58926;SDS011;44712;52.530;9.760;2022-08-19T08:23:22;11.93;;;8.00;;
58926;SDS011;44712;52.530;9.760;2022-08-19T08:25:52;15.23;;;10.23;;
58926;SDS011;44712;52.530;9.760;2022-08-19T08:28:21;12.45;;;9.10;;
58926;SDS011;44712;52.530;9.760;2022-08-19T08:30:49;13.35;;;9.25;;
58926;SDS011;44712;52.530;9.760;2022-08-19T08:33:21;14.70;;;9.07;;
58926;SDS011;44712;52.530;9.760;2022-08-19T08:36:09;12.38;;;8.77;;
58926;SDS011;44712;52.530;9.760;2022-08-19T08:38:37;16.42;;;10.77;;
58926;SDS011;44712;52.530;9.760;2022-08-19T08:44:03;11.95;;;9.00;;
58926;SDS011;44712;52.530;9.760;2022-08-19T08:46:35;10.43;;;7.28;;
58926;SDS011;44712;52.530;9.760;2022-08-19T08:54:59;11.45;;;7.47;;
58926;SDS011;44712;52.530;9.760;2022-08-19T08:57:40;9.32;;;7.07;;
58926;SDS011;44712;52.530;9.760;2022-08-19T09:00:19;10.90;;;7.60;;
58926;SDS011;44712;52.530;9.760;2022-08-19T09:02:50;10.48;;;8.05;;
58926;SDS011;44712;52.530;9.760;2022-08-19T09:05:18;8.63;;;6.53;;
58926;SDS011;44712;52.530;9.760;2022-08-19T09:08:05;9.00;;;7.00;;
58926;SDS011;44712;52.530;9.760;2022-08-19T09:10:44;9.15;;;6.53;;
58926;SDS011;44712;52.530;9.760;2022-08-19T09:13:24;8.93;;;6.63;;
58926;SDS011;44712;52.530;9.760;2022-08-19T09:16:13;6.72;;;5.38;;
58926;SDS011;44712;52.530;9.760;2022-08-19T09:18:47;7.30;;;5.38;;
58926;SDS011;44712;52.530;9.760;2022-08-19T09:21:19;9.15;;;6.18;;
58926;SDS011;44712;52.530;9.760;2022-08-19T09:23:55;7.65;;;5.50;;
58926;SDS011;44712;52.530;9.760;2022-08-19T09:26:25;7.68;;;5.53;;
58926;SDS011;44712;52.530;9.760;2022-08-19T09:29:12;6.60;;;5.80;;
58926;SDS011;44712;52.530;9.760;2022-08-19T09:31:39;5.75;;;4.70;;
58926;SDS011;44712;52.530;9.760;2022-08-19T09:34:06;7.30;;;5.53;;
58926;SDS011;44712;52.530;9.760;2022-08-19T09:36:46;6.93;;;4.78;;
58926;SDS011;44712;52.530;9.760;2022-08-19T09:39:16;5.40;;;4.60;;
58926;SDS011;44712;52.530;9.760;2022-08-19T09:41:43;6.15;;;4.45;;
58926;SDS011;44712;52.530;9.760;2022-08-19T09:44:14;8.02;;;5.30;;
58926;SDS011;44712;52.530;9.760;2022-08-19T09:46:43;6.95;;;4.82;;
58926;SDS011;44712;52.530;9.760;2022-08-19T09:49:10;6.82;;;4.82;;
58926;SDS011;44712;52.530;9.760;2022-08-19T09:51:39;6.75;;;4.97;;
58926;SDS011;44712;52.530;9.760;2022-08-19T09:54:06;5.82;;;5.22;;
58926;SDS011;44712;52.530;9.760;2022-08-19T09:56:36;5.72;;;5.07;;
58926;SDS011;44712;52.530;9.760;2022-08-19T09:59:03;7.63;;;5.03;;
58926;SDS011;44712;52.530;9.760;2022-08-19T10:01:31;7.70;;;4.63;;
58926;SDS011;44712;52.530;9.760;2022-08-19T10:03:59;6.05;;;5.28;;
58926;SDS011;44712;52.530;9.760;2022-08-19T10:06:35;6.95;;;4.47;;
58926;SDS011;44712;52.530;9.760;2022-08-19T10:09:13;7.07;;;5.53;;
58926;SDS011;44712;52.530;9.760;2022-08-19T10:11:42;8.32;;;5.60;;
58926;SDS011;44712;52.530;9.760;2022-08-19T10:14:20;6.70;;;5.55;;
58926;SDS011;44712;52.530;9.760;2022-08-19T10:16:50;7.80;;;5.18;;
58926;SDS011;44712;52.530;9.760;2022-08-19T10:19:19;4.95;;;4.45;;
58926;SDS011;44712;52.530;9.760;2022-08-19T10:24:19;6.80;;;5.18;;
58926;SDS011;44712;52.530;9.760;2022-08-19T10:26:47;5.35;;;4.85;;
58926;SDS011;44712;52.530;9.760;2022-08-19T10:29:25;6.03;;;4.35;;
58926;SDS011;44712;52.530;9.760;2022-08-19T10:34:30;4.75;;;4.15;;
58926;SDS011;44712;52.530;9.760;2022-08-19T10:36:57;7.50;;;4.90;;
58926;SDS011;44712;52.530;9.760;2022-08-19T10:39:31;6.28;;;4.63;;
58926;SDS011;44712;52.530;9.760;2022-08-19T10:42:08;6.07;;;4.55;;
58926;SDS011;44712;52.530;9.760;2022-08-19T10:44:37;5.95;;;4.88;;
58926;SDS011;44712;52.530;9.760;2022-08-19T10:47:04;6.85;;;5.03;;
58926;SDS011;44712;52.530;9.760;2022-08-19T10:49:54;7.93;;;5.35;;
58926;SDS011;44712;52.530;9.760;2022-08-19T10:52:41;5.07;;;4.50;;
58926;SDS011;44712;52.530;9.760;2022-08-19T10:55:16;5.75;;;4.22;;
58926;SDS011;44712;52.530;9.760;2022-08-19T10:58:11;7.38;;;4.32;;
58926;SDS011;44712;52.530;9.760;2022-08-19T11:00:39;7.25;;;5.10;;
58926;SDS011;44712;52.530;9.760;2022-08-19T11:03:07;5.15;;;4.45;;
58926;SDS011;44712;52.530;9.760;2022-08-19T11:05:35;6.68;;;5.20;;
58926;SDS011;44712;52.530;9.760;2022-08-19T11:08:07;5.68;;;4.40;;
58926;SDS011;44712;52.530;9.760;2022-08-19T11:10:51;4.70;;;4.07;;
58926;SDS011;44712;52.530;9.760;2022-08-19T11:13:22;5.82;;;4.53;;
58926;SDS011;44712;52.530;9.760;2022-08-19T11:15:56;4.63;;;4.13;;
58926;SDS011;44712;52.530;9.760;2022-08-19T11:18:37;5.05;;;4.13;;
58926;SDS011;44712;52.530;9.760;2022-08-19T11:21:11;6.00;;;4.30;;
58926;SDS011;44712;52.530;9.760;2022-08-19T11:23:46;6.20;;;4.45;;
58926;SDS011;44712;52.530;9.760;2022-08-19T11:26:15;6.05;;;4.68;;
58926;SDS011;44712;52.530;9.760;2022-08-19T11:28:43;6.40;;;4.97;;
58926;SDS011;44712;52.530;9.760;2022-08-19T11:31:11;4.95;;;4.20;;
58926;SDS011;44712;52.530;9.760;2022-08-19T11:33:40;4.20;;;3.80;;
58926;SDS011;44712;52.530;9.760;2022-08-19T11:36:12;5.33;;;3.77;;
58926;SDS011;44712;52.530;9.760;2022-08-19T11:38:40;3.42;;;3.00;;
58926;SDS011;44712;52.530;9.760;2022-08-19T11:41:07;5.70;;;4.00;;
58926;SDS011;44712;52.530;9.760;2022-08-19T11:43:34;4.53;;;3.60;;
58926;SDS011;44712;52.530;9.760;2022-08-19T11:46:06;4.18;;;3.78;;
58926;SDS011;44712;52.530;9.760;2022-08-19T11:48:36;3.42;;;3.13;;
58926;SDS011;44712;52.530;9.760;2022-08-19T11:51:05;4.95;;;4.20;;
58926;SDS011;44712;52.530;9.760;2022-08-19T11:53:35;4.25;;;3.42;;
58926;SDS011;44712;52.530;9.760;2022-08-19T11:56:02;3.47;;;3.17;;
58926;SDS011;44712;52.530;9.760;2022-08-19T11:58:30;3.60;;;3.03;;
58926;SDS011;44712;52.530;9.760;2022-08-19T12:00:57;3.80;;;3.38;;
58926;SDS011;44712;52.530;9.760;2022-08-19T12:03:24;4.03;;;3.10;;
58926;SDS011;44712;52.530;9.760;2022-08-19T12:05:51;3.97;;;3.40;;
58926;SDS011;44712;52.530;9.760;2022-08-19T12:08:18;3.67;;;3.38;;
58926;SDS011;44712;52.530;9.760;2022-08-19T12:10:46;3.67;;;3.38;;
58926;SDS011;44712;52.530;9.760;2022-08-19T12:13:13;3.88;;;3.33;;
58926;SDS011;44712;52.530;9.760;2022-08-19T12:15:45;3.60;;;3.28;;
58926;SDS011;44712;52.530;9.760;2022-08-19T12:18:13;3.60;;;3.30;;
58926;SDS011;44712;52.530;9.760;2022-08-19T12:20:42;3.33;;;3.03;;
58926;SDS011;44712;52.530;9.760;2022-08-19T12:23:09;4.07;;;3.20;;
58926;SDS011;44712;52.530;9.760;2022-08-19T12:25:42;3.88;;;3.47;;
58926;SDS011;44712;52.530;9.760;2022-08-19T12:28:16;4.18;;;3.10;;
58926;SDS011;44712;52.530;9.760;2022-08-19T12:30:44;3.63;;;3.30;;
58926;SDS011;44712;52.530;9.760;2022-08-19T12:33:11;3.97;;;3.38;;
58926;SDS011;44712;52.530;9.760;2022-08-19T12:35:43;3.63;;;3.25;;
58926;SDS011;44712;52.530;9.760;2022-08-19T12:38:13;4.10;;;3.53;;
58926;SDS011;44712;52.530;9.760;2022-08-19T12:40:41;4.90;;;3.80;;
58926;SDS011;44712;52.530;9.760;2022-08-19T12:43:12;4.68;;;3.70;;
58926;SDS011;44712;52.530;9.760;2022-08-19T12:45:41;5.75;;;3.42;;
58926;SDS011;44712;52.530;9.760;2022-08-19T12:48:08;4.88;;;3.30;;
58926;SDS011;44712;52.530;9.760;2022-08-19T12:50:56;4.90;;;3.42;;
58926;SDS011;44712;52.530;9.760;2022-08-19T12:53:23;3.80;;;3.50;;
58926;SDS011;44712;52.530;9.760;2022-08-19T12:55:57;3.95;;;3.55;;
58926;SDS011;44712;52.530;9.760;2022-08-19T12:58:26;3.50;;;2.88;;
58926;SDS011;44712;52.530;9.760;2022-08-19T13:00:53;4.22;;;3.35;;
58926;SDS011;44712;52.530;9.760;2022-08-19T13:03:20;4.13;;;3.33;;
58926;SDS011;44712;52.530;9.760;2022-08-19T13:05:50;4.85;;;3.08;;
58926;SDS011;44712;52.530;9.760;2022-08-19T13:08:17;3.40;;;3.10;;
58926;SDS011;44712;52.530;9.760;2022-08-19T13:10:43;4.15;;;2.90;;
58926;SDS011;44712;52.530;9.760;2022-08-19T13:13:10;3.65;;;3.35;;
58926;SDS011;44712;52.530;9.760;2022-08-19T13:15:38;3.30;;;3.00;;
58926;SDS011;44712;52.530;9.760;2022-08-19T13:18:07;4.85;;;3.28;;
58926;SDS011;44712;52.530;9.760;2022-08-19T13:20:36;4.35;;;3.13;;
58926;SDS011;44712;52.530;9.760;2022-08-19T13:23:04;3.78;;;3.40;;
58926;SDS011;44712;52.530;9.760;2022-08-19T13:25:31;3.25;;;2.95;;
58926;SDS011;44712;52.530;9.760;2022-08-19T13:27:58;3.33;;;2.85;;
58926;SDS011;44712;52.530;9.760;2022-08-19T13:30:26;3.72;;;3.30;;
58926;SDS011;44712;52.530;9.760;2022-08-19T13:33:13;3.40;;;2.90;;
58926;SDS011;44712;52.530;9.760;2022-08-19T13:35:44;3.80;;;3.00;;
58926;SDS011;44712;52.530;9.760;2022-08-19T13:38:14;4.07;;;2.88;;
58926;SDS011;44712;52.530;9.760;2022-08-19T13:40:44;3.28;;;2.97;;
58926;SDS011;44712;52.530;9.760;2022-08-19T13:43:13;4.80;;;3.25;;
58926;SDS011;44712;52.530;9.760;2022-08-19T13:45:49;4.25;;;3.00;;
58926;SDS011;44712;52.530;9.760;2022-08-19T13:48:24;5.07;;;2.78;;
58926;SDS011;44712;52.530;9.760;2022-08-19T13:50:52;3.00;;;2.60;;
58926;SDS011;44712;52.530;9.760;2022-08-19T13:53:23;5.20;;;2.40;;
58926;SDS011;44712;52.530;9.760;2022-08-19T13:55:52;6.40;;;2.60;;
58926;SDS011;44712;52.530;9.760;2022-08-19T13:58:20;2.83;;;2.42;;
58926;SDS011;44712;52.530;9.760;2022-08-19T14:00:46;2.55;;;2.30;;
58926;SDS011;44712;52.530;9.760;2022-08-19T14:03:15;2.80;;;2.60;;
58926;SDS011;44712;52.530;9.760;2022-08-19T14:05:42;2.97;;;2.55;;
58926;SDS011;44712;52.530;9.760;2022-08-19T14:08:09;3.03;;;2.45;;
58926;SDS011;44712;52.530;9.760;2022-08-19T14:10:35;2.88;;;2.58;;
58926;SDS011;44712;52.530;9.760;2022-08-19T14:13:02;2.97;;;2.78;;
58926;SDS011;44712;52.530;9.760;2022-08-19T14:15:30;3.08;;;2.60;;
58926;SDS011;44712;52.530;9.760;2022-08-19T14:17:58;3.38;;;2.42;;
58926;SDS011;44712;52.530;9.760;2022-08-19T14:20:26;3.50;;;2.42;;
58926;SDS011;44712;52.530;9.760;2022-08-19T14:22:53;2.67;;;2.47;;
58926;SDS011;44712;52.530;9.760;2022-08-19T14:25:22;3.15;;;2.60;;
58926;SDS011;44712;52.530;9.760;2022-08-19T14:27:51;2.90;;;2.30;;
58926;SDS011;44712;52.530;9.760;2022-08-19T14:30:23;3.17;;;2.30;;
58926;SDS011;44712;52.530;9.760;2022-08-19T14:32:55;3.33;;;2.40;;
58926;SDS011;44712;52.530;9.760;2022-08-19T14:35:24;2.80;;;2.38;;
58926;SDS011;44712;52.530;9.760;2022-08-19T14:37:52;2.33;;;2.13;;
58926;SDS011;44712;52.530;9.760;2022-08-19T14:40:25;2.60;;;2.10;;
58926;SDS011;44712;52.530;9.760;2022-08-19T14:42:53;2.70;;;2.30;;
58926;SDS011;44712;52.530;9.760;2022-08-19T14:45:26;2.65;;;2.22;;
58926;SDS011;44712;52.530;9.760;2022-08-19T14:47:54;2.13;;;1.92;;
58926;SDS011;44712;52.530;9.760;2022-08-19T14:50:22;2.28;;;1.73;;
58926;SDS011;44712;52.530;9.760;2022-08-19T14:52:49;2.75;;;2.00;;
58926;SDS011;44712;52.530;9.760;2022-08-19T14:55:18;2.88;;;2.00;;
58926;SDS011;44712;52.530;9.760;2022-08-19T14:57:44;2.42;;;2.00;;
58926;SDS011;44712;52.530;9.760;2022-08-19T15:00:11;2.42;;;2.20;;
58926;SDS011;44712;52.530;9.760;2022-08-19T15:02:40;3.35;;;2.30;;
58926;SDS011;44712;52.530;9.760;2022-08-19T15:05:08;3.55;;;2.13;;
58926;SDS011;44712;52.530;9.760;2022-08-19T15:07:35;2.90;;;2.33;;
58926;SDS011;44712;52.530;9.760;2022-08-19T15:10:05;3.28;;;2.15;;
58926;SDS011;44712;52.530;9.760;2022-08-19T15:12:34;3.53;;;1.90;;
58926;SDS011;44712;52.530;9.760;2022-08-19T15:15:02;3.08;;;2.20;;
58926;SDS011;44712;52.530;9.760;2022-08-19T15:17:29;2.47;;;1.85;;